^^
Meteo Knjazevac Station Historical Data
Daily Summary for March 8, 2021 Units:  Both    English   Metric
Daily Weekly Monthly Yearly Custom
  High: Low: Average:
Temperature: 61.5 °F /  16.4 °C 52.2 °F /  11.2 °C 55.6 °F /  13.1 °C
Dew Point: 57.9 °F /  14.4 °C 51.1 °F /  10.6 °C 53.8 °F /  12.1 °C
Humidity: 96% 88% 94%
Wind Speed: 2mph /  3.2km/h - 0.5mph /  0.8km/h
Wind Gust: 4mph /  6.4km/h - -
Wind- - WSW
Pressure: 30.12 in /  1019.9 hPa 30.09 in /  1018.8 hPa -
Precipitation: 0.00 in /  0 mm    
Historical Graphs
 
 
Tabular Data for March 8, 2021
Time Temperature Dew Point Pressure Wind Wind Speed Wind Gust Humidity Rainfall Rate (Hourly) solar Conditions
00:00 61.5 °F /  16.4 °C 57.9 °F /  14.4 °C 30.12in /  1019.9hPa Calm   3mph /  4.8km/h 88% 0.00in /  0mm 0 W/m2
00:10 61.1 °F /  16.2 °C 57.8 °F /  14.3 °C 30.12in /  1019.9hPa Calm   2mph /  3.2km/h 89% 0.00in /  0mm 0 W/m2
00:20 60.6 °F /  15.9 °C 57.4 °F /  14.1 °C 30.12in /  1019.9hPa SW 1mph /  1.6km/h 2mph /  3.2km/h 89% 0.00in /  0mm 0 W/m2
00:30 59.9 °F /  15.5 °C 57 °F /  13.9 °C 30.12in /  1019.9hPa Calm   2mph /  3.2km/h 90% 0.00in /  0mm 0 W/m2
00:40 59.3 °F /  15.2 °C 56.4 °F /  13.6 °C 30.11in /  1019.5hPa West 1mph /  1.6km/h 2mph /  3.2km/h 90% 0.00in /  0mm 0 W/m2
00:50 58.8 °F /  14.9 °C 56.1 °F /  13.4 °C 30.11in /  1019.5hPa WNW 1mph /  1.6km/h 2mph /  3.2km/h 91% 0.00in /  0mm 0 W/m2
01:00 58.4 °F /  14.7 °C 55.8 °F /  13.2 °C 30.11in /  1019.5hPa Calm   2mph /  3.2km/h 91% 0.00in /  0mm 0 W/m2
01:10 57.9 °F /  14.4 °C 55.9 °F /  13.3 °C 30.11in /  1019.5hPa WSW 2mph /  3.2km/h 4mph /  6.4km/h 93% 0.00in /  0mm 0 W/m2
01:20 57.6 °F /  14.2 °C 55.6 °F /  13.1 °C 30.11in /  1019.5hPa Calm   3mph /  4.8km/h 93% 0.00in /  0mm 0 W/m2
01:30 57.4 °F /  14.1 °C 55.7 °F /  13.2 °C 30.11in /  1019.5hPa Calm   2mph /  3.2km/h 94% 0.00in /  0mm 0 W/m2
01:40 57.6 °F /  14.2 °C 55.8 °F /  13.2 °C 30.11in /  1019.5hPa SSE 2mph /  3.2km/h 4mph /  6.4km/h 94% 0.00in /  0mm 0 W/m2
01:50 57.2 °F /  14 °C 55.2 °F /  12.9 °C 30.11in /  1019.5hPa SW 1mph /  1.6km/h 4mph /  6.4km/h 93% 0.00in /  0mm 0 W/m2
02:00 56.8 °F /  13.8 °C 55.1 °F /  12.8 °C 30.11in /  1019.5hPa Calm   2mph /  3.2km/h 94% 0.00in /  0mm 0 W/m2
02:10 56.7 °F /  13.7 °C 55 °F /  12.8 °C 30.11in /  1019.5hPa SW 1mph /  1.6km/h 3mph /  4.8km/h 94% 0.00in /  0mm 0 W/m2
02:20 56.4 °F /  13.6 °C 54.7 °F /  12.6 °C 30.11in /  1019.5hPa Calm   2mph /  3.2km/h 94% 0.00in /  0mm 0 W/m2
02:30 55.9 °F /  13.3 °C 54.2 °F /  12.3 °C 30.10in /  1019.2hPa WNW 1mph /  1.6km/h 2mph /  3.2km/h 94% 0.00in /  0mm 0 W/m2
02:40 55.4 °F /  13 °C 53.4 °F /  11.9 °C 30.10in /  1019.2hPa Calm   2mph /  3.2km/h 93% 0.00in /  0mm 0 W/m2
02:50 55 °F /  12.8 °C 53.3 °F /  11.8 °C 30.10in /  1019.2hPa Calm   2mph /  3.2km/h 94% 0.00in /  0mm 0 W/m2
03:00 54.7 °F /  12.6 °C 53 °F /  11.7 °C 30.10in /  1019.2hPa SW 1mph /  1.6km/h 2mph /  3.2km/h 94% 0.00in /  0mm 0 W/m2
03:10 54.3 °F /  12.4 °C 52.6 °F /  11.4 °C 30.10in /  1019.2hPa Calm   2mph /  3.2km/h 94% 0.00in /  0mm 0 W/m2
03:20 54.3 °F /  12.4 °C 52.9 °F /  11.6 °C 30.09in /  1018.8hPa North 1mph /  1.6km/h 2mph /  3.2km/h 95% 0.00in /  0mm 0 W/m2
03:30 54.1 °F /  12.3 °C 52.7 °F /  11.5 °C 30.09in /  1018.8hPa NW 1mph /  1.6km/h 2mph /  3.2km/h 95% 0.00in /  0mm 0 W/m2
03:40 53.6 °F /  12 °C 52.2 °F /  11.2 °C 30.09in /  1018.8hPa WSW 1mph /  1.6km/h 3mph /  4.8km/h 95% 0.00in /  0mm 0 W/m2
03:50 53.2 °F /  11.8 °C 51.8 °F /  11 °C 30.10in /  1019.2hPa Calm   2mph /  3.2km/h 95% 0.00in /  0mm 0 W/m2
04:00 53.2 °F /  11.8 °C 51.8 °F /  11 °C 30.10in /  1019.2hPa WNW 1mph /  1.6km/h 2mph /  3.2km/h 95% 0.00in /  0mm 0 W/m2
04:10 53.1 °F /  11.7 °C 51.7 °F /  10.9 °C 30.10in /  1019.2hPa Calm   2mph /  3.2km/h 95% 0.00in /  0mm 0 W/m2
04:20 52.9 °F /  11.6 °C 51.5 °F /  10.8 °C 30.10in /  1019.2hPa Calm   2mph /  3.2km/h 95% 0.00in /  0mm 0 W/m2
04:30 52.8 °F /  11.6 °C 51.7 °F /  10.9 °C 30.10in /  1019.2hPa North 1mph /  1.6km/h 4mph /  6.4km/h 96% 0.00in /  0mm 0 W/m2
04:40 52.7 °F /  11.5 °C 51.6 °F /  10.9 °C 30.10in /  1019.2hPa NNW 1mph /  1.6km/h 2mph /  3.2km/h 96% 0.00in /  0mm 0 W/m2
04:50 52.7 °F /  11.5 °C 51.6 °F /  10.9 °C 30.10in /  1019.2hPa Calm   2mph /  3.2km/h 96% 0.00in /  0mm 3 W/m2
05:00 52.4 °F /  11.3 °C 51.3 °F /  10.7 °C 30.10in /  1019.2hPa Calm   2mph /  3.2km/h 96% 0.00in /  0mm 8 W/m2
05:10 52.3 °F /  11.3 °C 51.2 °F /  10.7 °C 30.10in /  1019.2hPa Calm   3mph /  4.8km/h 96% 0.00in /  0mm 14 W/m2
05:20 52.3 °F /  11.3 °C 51.2 °F /  10.7 °C 30.10in /  1019.2hPa Calm   2mph /  3.2km/h 96% 0.00in /  0mm 23 W/m2
05:30 52.2 °F /  11.2 °C 51.1 °F /  10.6 °C 30.10in /  1019.2hPa Calm   2mph /  3.2km/h 96% 0.00in /  0mm 33 W/m2
05:40 52.2 °F /  11.2 °C 51.1 °F /  10.6 °C 30.11in /  1019.5hPa Calm   2mph /  3.2km/h 96% 0.00in /  0mm 42 W/m2
Knjazevac, Serbia
Compliments of Weather Underground - 2 mb